Time;durP1;ratioP1;P1;durP2;ratioP2;P2;SDS_P1;SDS_P2;PMS_P1;PMS_P2;Temp;Humidity;BMP_temperature;BMP_pressure;BME280_temperature;BME280_humidity;BME280_pressure;Samples;Min_cycle;Max_cycle;Signal;HPM_P1;HPM_P2
2022/11/14 00:00:10;;;;;;;;;42.00;33.75;;;;;;;;5080923;28;61864;-87
2022/11/14 00:02:35;;;;;;;;;33.50;29.25;;;;;;;;5080306;27;62262;-87
2022/11/14 00:05:01;;;;;;;;;39.25;30.75;;;;;;;;5082480;27;61977;-86
2022/11/14 00:07:29;;;;;;;;;29.50;26.00;;;;;;;;5080338;27;63285;-87
2022/11/14 00:09:54;;;;;;;;;38.25;32.75;;;;;;;;5081151;27;62095;-87
2022/11/14 00:12:19;;;;;;;;;31.75;24.50;;;;;;;;5081589;27;61929;-86
2022/11/14 00:14:44;;;;;;;;;28.25;23.25;;;;;;;;5083142;27;61728;-87
2022/11/14 00:17:10;;;;;;;;;32.00;23.75;;;;;;;;5082372;27;61996;-86
2022/11/14 00:19:35;;;;;;;;;31.25;24.25;;;;;;;;5082150;27;62121;-86
2022/11/14 00:22:00;;;;;;;;;39.75;28.00;;;;;;;;5081561;28;61938;-86
2022/11/14 00:24:26;;;;;;;;;30.25;23.25;;;;;;;;5081182;27;62260;-86
2022/11/14 00:26:51;;;;;;;;;30.25;25.25;;;;;;;;5080623;28;62801;-87
2022/11/14 00:29:16;;;;;;;;;38.50;30.75;;;;;;;;5081485;27;61758;-87
2022/11/14 00:31:42;;;;;;;;;30.50;20.25;;;;;;;;5081485;28;61849;-86
2022/11/14 00:34:07;;;;;;;;;31.25;26.50;;;;;;;;5081324;28;61877;-87
2022/11/14 00:36:32;;;;;;;;;40.00;26.25;;;;;;;;5081870;27;62041;-87
2022/11/14 00:38:58;;;;;;;;;29.50;24.50;;;;;;;;5081060;28;61745;-87
2022/11/14 00:41:23;;;;;;;;;27.25;24.50;;;;;;;;5081051;28;62022;-87
2022/11/14 00:43:48;;;;;;;;;30.25;25.00;;;;;;;;5081256;28;61805;-87
2022/11/14 00:46:14;;;;;;;;;35.50;29.75;;;;;;;;5082016;27;62902;-87
2022/11/14 00:48:39;;;;;;;;;37.25;27.75;;;;;;;;5081377;27;61730;-87
2022/11/14 00:51:05;;;;;;;;;33.75;28.00;;;;;;;;5081160;28;61869;-87
2022/11/14 00:53:30;;;;;;;;;33.25;27.75;;;;;;;;5081011;28;62026;-87
2022/11/14 00:55:55;;;;;;;;;41.25;22.00;;;;;;;;5080005;27;64811;-87
2022/11/14 00:58:21;;;;;;;;;35.50;24.00;;;;;;;;5082385;27;61925;-87
2022/11/14 01:00:46;;;;;;;;;33.25;22.25;;;;;;;;5097687;27;61732;-87
2022/11/14 01:03:11;;;;;;;;;30.00;22.25;;;;;;;;5083928;27;61812;-87
2022/11/14 01:05:44;;;;;;;;;36.50;27.75;;;;;;;;5083265;27;62386;-87
2022/11/14 01:08:09;;;;;;;;;30.00;23.25;;;;;;;;5103947;27;62158;-87
2022/11/14 01:10:37;;;;;;;;;25.00;22.25;;;;;;;;5105608;27;61869;-87
2022/11/14 01:13:03;;;;;;;;;32.25;22.50;;;;;;;;5106841;27;61927;-87
2022/11/14 01:15:28;;;;;;;;;30.75;25.50;;;;;;;;5105557;27;61885;-87
2022/11/14 01:17:53;;;;;;;;;35.00;27.00;;;;;;;;5087290;27;61807;-87
2022/11/14 01:20:18;;;;;;;;;29.75;25.00;;;;;;;;5105967;27;61967;-87
2022/11/14 01:22:44;;;;;;;;;37.00;24.25;;;;;;;;5106252;27;62606;-87
2022/11/14 01:25:09;;;;;;;;;28.75;22.50;;;;;;;;5086341;27;62844;-87
2022/11/14 01:27:34;;;;;;;;;35.00;26.25;;;;;;;;5087574;27;61732;-87
2022/11/14 01:29:59;;;;;;;;;31.00;25.50;;;;;;;;5106106;27;61685;-87
2022/11/14 01:32:25;;;;;;;;;32.75;24.75;;;;;;;;5105786;27;61890;-86
2022/11/14 01:34:51;;;;;;;;;32.50;20.25;;;;;;;;5086981;27;61832;-87
2022/11/14 01:37:16;;;;;;;;;27.00;20.00;;;;;;;;5076395;27;62038;-87
2022/11/14 01:39:41;;;;;;;;;26.50;24.00;;;;;;;;5100928;27;61847;-87
2022/11/14 01:42:06;;;;;;;;;24.25;16.50;;;;;;;;5087969;27;61723;-87
2022/11/14 01:44:51;;;;;;;;;37.00;25.75;;;;;;;;5105024;27;61976;-86
2022/11/14 01:47:21;;;;;;;;;28.00;20.25;;;;;;;;5086961;27;61764;-86
2022/11/14 01:49:49;;;;;;;;;31.50;18.75;;;;;;;;5086674;27;61904;-87
2022/11/14 01:52:22;;;;;;;;;24.75;19.25;;;;;;;;5087709;27;61794;-87
2022/11/14 01:54:49;;;;;;;;;21.25;16.75;;;;;;;;5086401;27;64822;-87
2022/11/14 01:57:17;;;;;;;;;22.75;20.00;;;;;;;;5105933;27;61692;-87
2022/11/14 01:59:46;;;;;;;;;21.75;14.50;;;;;;;;5086701;27;62028;-87
2022/11/14 02:02:16;;;;;;;;;22.75;20.00;;;;;;;;5087657;27;62182;-87
2022/11/14 02:04:42;;;;;;;;;27.75;21.75;;;;;;;;5104238;27;63324;-87
2022/11/14 02:07:08;;;;;;;;;31.00;22.25;;;;;;;;5084840;27;61861;-87
2022/11/14 02:09:35;;;;;;;;;26.00;23.00;;;;;;;;5086575;27;61910;-87
2022/11/14 02:12:02;;;;;;;;;23.00;21.75;;;;;;;;5087321;27;61900;-87
2022/11/14 02:14:28;;;;;;;;;33.75;29.00;;;;;;;;5104177;27;61998;-87
2022/11/14 02:16:54;;;;;;;;;36.00;26.50;;;;;;;;5086556;27;62022;-87
2022/11/14 02:19:20;;;;;;;;;32.75;27.00;;;;;;;;5085570;27;61947;-87
2022/11/14 02:21:45;;;;;;;;;35.25;27.25;;;;;;;;5086191;27;61855;-87
2022/11/14 02:24:10;;;;;;;;;34.50;27.00;;;;;;;;5086397;27;64008;-87
2022/11/14 02:26:36;;;;;;;;;27.75;25.00;;;;;;;;5086580;27;61796;-87
2022/11/14 02:29:02;;;;;;;;;35.25;30.00;;;;;;;;5086693;27;61728;-87
2022/11/14 02:31:27;;;;;;;;;29.25;25.00;;;;;;;;5086975;27;61888;-87
2022/11/14 02:33:52;;;;;;;;;32.50;27.50;;;;;;;;5085565;27;63810;-87
2022/11/14 02:36:18;;;;;;;;;42.75;27.00;;;;;;;;5082996;27;61890;-87
2022/11/14 02:38:43;;;;;;;;;31.75;25.00;;;;;;;;5092759;27;61868;-87
2022/11/14 02:41:08;;;;;;;;;34.75;24.75;;;;;;;;5105506;27;61759;-87
2022/11/14 02:43:33;;;;;;;;;36.00;27.50;;;;;;;;5104599;27;62003;-87
2022/11/14 02:45:59;;;;;;;;;37.75;31.25;;;;;;;;5086139;27;61831;-87
2022/11/14 02:48:25;;;;;;;;;40.50;26.75;;;;;;;;5085736;27;61970;-83
2022/11/14 02:50:50;;;;;;;;;30.75;24.25;;;;;;;;5104222;27;61774;-87
2022/11/14 02:53:15;;;;;;;;;33.50;26.25;;;;;;;;5104362;27;61829;-87
2022/11/14 02:55:41;;;;;;;;;39.50;26.25;;;;;;;;5086079;27;61779;-87
2022/11/14 02:58:06;;;;;;;;;24.00;19.75;;;;;;;;5086305;27;61760;-87
2022/11/14 03:00:32;;;;;;;;;22.50;19.25;;;;;;;;5086083;27;61767;-87
2022/11/14 03:02:57;;;;;;;;;27.50;19.50;;;;;;;;5084960;27;64484;-87
2022/11/14 03:05:22;;;;;;;;;28.50;22.50;;;;;;;;5085742;27;61854;-87
2022/11/14 03:07:51;;;;;;;;;31.75;25.00;;;;;;;;5104168;27;61823;-87
2022/11/14 03:10:16;;;;;;;;;31.00;22.75;;;;;;;;5086195;27;61790;-87
2022/11/14 03:12:42;;;;;;;;;39.25;26.50;;;;;;;;5103380;27;62054;-87
2022/11/14 03:15:08;;;;;;;;;29.00;22.00;;;;;;;;5104386;27;62034;-87
2022/11/14 03:17:33;;;;;;;;;32.25;21.50;;;;;;;;5085486;27;61752;-87
2022/11/14 03:19:59;;;;;;;;;25.50;20.50;;;;;;;;5103467;27;62073;-87
2022/11/14 03:22:24;;;;;;;;;24.75;20.25;;;;;;;;5085403;27;64795;-88
2022/11/14 03:24:50;;;;;;;;;29.00;19.75;;;;;;;;5085555;27;61924;-87
2022/11/14 03:27:15;;;;;;;;;27.25;21.25;;;;;;;;5104447;27;61834;-87
2022/11/14 03:29:40;;;;;;;;;20.75;19.75;;;;;;;;5085912;27;61814;-87
2022/11/14 03:32:05;;;;;;;;;24.00;15.00;;;;;;;;5084789;27;61940;-87
2022/11/14 03:34:31;;;;;;;;;19.00;15.25;;;;;;;;5103242;27;61893;-87
2022/11/14 03:36:56;;;;;;;;;20.50;18.75;;;;;;;;5085242;27;62125;-87
2022/11/14 03:39:21;;;;;;;;;20.25;18.00;;;;;;;;5104050;27;62074;-87
2022/11/14 03:41:47;;;;;;;;;21.25;14.50;;;;;;;;5084768;27;62130;-87
2022/11/14 03:44:12;;;;;;;;;24.00;18.75;;;;;;;;5085147;27;61897;-87
2022/11/14 03:46:37;;;;;;;;;25.75;19.00;;;;;;;;5085214;27;61976;-87
2022/11/14 03:49:03;;;;;;;;;24.50;16.25;;;;;;;;5084331;27;62115;-87
2022/11/14 03:51:28;;;;;;;;;19.50;16.75;;;;;;;;5084892;27;63941;-87
2022/11/14 03:53:53;;;;;;;;;22.50;17.00;;;;;;;;5085050;27;61956;-88
2022/11/14 03:56:19;;;;;;;;;27.50;20.25;;;;;;;;5103359;27;61816;-87
2022/11/14 03:58:44;;;;;;;;;27.50;17.50;;;;;;;;5085655;27;61830;-87
2022/11/14 04:01:09;;;;;;;;;21.25;14.75;;;;;;;;5084323;27;64214;-87
2022/11/14 04:03:34;;;;;;;;;24.00;15.75;;;;;;;;5084756;27;61763;-87
2022/11/14 04:06:00;;;;;;;;;21.50;16.25;;;;;;;;5103278;27;61791;-87
2022/11/14 04:08:25;;;;;;;;;23.75;18.50;;;;;;;;5103711;27;61793;-87
2022/11/14 04:10:50;;;;;;;;;24.00;20.50;;;;;;;;5084244;27;62975;-87
2022/11/14 04:13:15;;;;;;;;;24.50;18.00;;;;;;;;5085045;27;61903;-87
2022/11/14 04:15:41;;;;;;;;;21.25;18.25;;;;;;;;5103414;27;61705;-87
2022/11/14 04:18:06;;;;;;;;;23.25;19.00;;;;;;;;5084162;27;61684;-87
2022/11/14 04:20:31;;;;;;;;;23.00;21.75;;;;;;;;5083906;27;63377;-87
2022/11/14 04:22:56;;;;;;;;;24.75;20.00;;;;;;;;5103297;27;61955;-87
2022/11/14 04:25:22;;;;;;;;;21.75;19.00;;;;;;;;5103031;27;61963;-87
2022/11/14 04:27:47;;;;;;;;;27.25;18.75;;;;;;;;5085138;27;61892;-87
2022/11/14 04:30:12;;;;;;;;;23.75;21.00;;;;;;;;5083883;27;61901;-87
2022/11/14 04:32:37;;;;;;;;;25.50;20.50;;;;;;;;5102590;27;62086;-86
2022/11/14 04:35:03;;;;;;;;;26.00;18.75;;;;;;;;5102556;27;62042;-87
2022/11/14 04:37:28;;;;;;;;;25.75;17.50;;;;;;;;5103157;27;61743;-87
2022/11/14 04:39:57;;;;;;;;;22.00;18.25;;;;;;;;5102444;27;61885;-87
2022/11/14 04:42:23;;;;;;;;;25.75;19.75;;;;;;;;5084229;27;61952;-87
2022/11/14 04:44:48;;;;;;;;;25.25;17.75;;;;;;;;5103017;27;61835;-87
2022/11/14 04:47:13;;;;;;;;;19.00;15.75;;;;;;;;5083877;27;61734;-87
2022/11/14 04:49:39;;;;;;;;;25.00;17.50;;;;;;;;5100573;27;62980;-87
2022/11/14 04:52:04;;;;;;;;;24.25;16.00;;;;;;;;5102903;27;61743;-87
2022/11/14 04:54:29;;;;;;;;;28.50;19.75;;;;;;;;5084407;27;61701;-87
2022/11/14 04:56:54;;;;;;;;;21.25;18.00;;;;;;;;5084737;27;61843;-87
2022/11/14 04:59:20;;;;;;;;;23.00;19.00;;;;;;;;5101539;27;61773;-83
2022/11/14 05:01:45;;;;;;;;;20.25;20.00;;;;;;;;5084077;27;61897;-87
2022/11/14 05:04:10;;;;;;;;;20.50;10.75;;;;;;;;5102166;27;61659;-87
2022/11/14 05:06:36;;;;;;;;;16.25;15.50;;;;;;;;5102916;27;61782;-87
2022/11/14 05:09:01;;;;;;;;;18.75;18.00;;;;;;;;5102151;27;61734;-87
2022/11/14 05:11:26;;;;;;;;;16.25;15.00;;;;;;;;5084265;27;61814;-86
2022/11/14 05:13:51;;;;;;;;;24.50;16.50;;;;;;;;5084117;27;61762;-88
2022/11/14 05:16:17;;;;;;;;;27.00;23.50;;;;;;;;5083753;27;61720;-88
2022/11/14 05:18:42;;;;;;;;;19.75;18.50;;;;;;;;5101440;27;61732;-88
2022/11/14 05:21:11;;;;;;;;;20.25;14.50;;;;;;;;5084369;27;61827;-88
2022/11/14 05:23:37;;;;;;;;;23.25;16.50;;;;;;;;5084333;27;61933;-87
2022/11/14 05:26:04;;;;;;;;;23.50;17.00;;;;;;;;5102093;27;61982;-87
2022/11/14 05:28:29;;;;;;;;;23.00;14.00;;;;;;;;5102044;27;63231;-88
2022/11/14 05:31:04;;;;;;;;;25.00;19.25;;;;;;;;5102279;27;61983;-88
2022/11/14 05:33:30;;;;;;;;;17.75;14.00;;;;;;;;5083863;27;61973;-88
2022/11/14 05:35:55;;;;;;;;;21.50;17.00;;;;;;;;5083898;27;61788;-87
2022/11/14 05:38:20;;;;;;;;;26.50;23.00;;;;;;;;5101162;27;61683;-88
2022/11/14 05:40:46;;;;;;;;;23.00;16.00;;;;;;;;5084033;27;61739;-87
2022/11/14 05:43:11;;;;;;;;;26.25;19.75;;;;;;;;5083825;27;61813;-88
2022/11/14 05:45:36;;;;;;;;;22.00;15.00;;;;;;;;5101998;27;61913;-87
2022/11/14 05:48:02;;;;;;;;;24.75;18.00;;;;;;;;5082979;27;62693;-87
2022/11/14 05:50:27;;;;;;;;;22.00;18.00;;;;;;;;5083062;27;61817;-87
2022/11/14 05:52:53;;;;;;;;;22.50;16.50;;;;;;;;5083982;27;61834;-87
2022/11/14 05:55:18;;;;;;;;;24.75;14.50;;;;;;;;5103464;27;61763;-87
2022/11/14 05:57:43;;;;;;;;;26.75;20.50;;;;;;;;5105286;27;62748;-88
2022/11/14 06:00:09;;;;;;;;;28.50;20.50;;;;;;;;5104595;27;61925;-87
2022/11/14 06:02:34;;;;;;;;;23.50;15.50;;;;;;;;5087102;27;61796;-84
2022/11/14 06:04:59;;;;;;;;;22.75;16.75;;;;;;;;5105502;27;62173;-78
2022/11/14 06:07:25;;;;;;;;;21.00;16.50;;;;;;;;5104170;27;61859;-78
2022/11/14 06:09:50;;;;;;;;;24.25;20.75;;;;;;;;5105256;27;61765;-80
2022/11/14 06:12:15;;;;;;;;;20.50;15.75;;;;;;;;5105371;27;62096;-79
2022/11/14 06:14:40;;;;;;;;;23.25;16.25;;;;;;;;5105005;27;61806;-79
2022/11/14 06:17:06;;;;;;;;;25.75;21.00;;;;;;;;5086072;27;64431;-80
2022/11/14 06:19:31;;;;;;;;;31.50;18.50;;;;;;;;5087883;27;61776;-79
2022/11/14 06:21:56;;;;;;;;;33.75;20.00;;;;;;;;5087120;27;61815;-78
2022/11/14 06:24:21;;;;;;;;;27.50;17.00;;;;;;;;5104982;27;62116;-82
2022/11/14 06:26:47;;;;;;;;;21.25;17.50;;;;;;;;5083950;27;64415;-78
2022/11/14 06:29:12;;;;;;;;;20.50;19.25;;;;;;;;5104396;27;61818;-82
2022/11/14 06:31:37;;;;;;;;;38.00;21.00;;;;;;;;5105317;27;61827;-81
2022/11/14 06:34:04;;;;;;;;;27.50;21.50;;;;;;;;5086961;27;61737;-81
2022/11/14 06:36:29;;;;;;;;;24.25;21.25;;;;;;;;5101943;27;62012;-78
2022/11/14 06:38:54;;;;;;;;;30.25;21.50;;;;;;;;5085073;27;61749;-80
2022/11/14 06:41:21;;;;;;;;;22.25;19.25;;;;;;;;5103036;27;62264;-81
2022/11/14 06:43:48;;;;;;;;;26.50;18.00;;;;;;;;5103010;27;61813;-80
2022/11/14 06:46:15;;;;;;;;;19.75;15.75;;;;;;;;5084904;27;61899;-87
2022/11/14 06:48:41;;;;;;;;;25.75;15.25;;;;;;;;5103768;27;61989;-82
2022/11/14 06:51:06;;;;;;;;;23.25;18.50;;;;;;;;5105010;27;61718;-83
2022/11/14 06:53:32;;;;;;;;;24.75;15.75;;;;;;;;5104109;27;61773;-83
2022/11/14 06:55:59;;;;;;;;;24.25;15.75;;;;;;;;5085200;27;63290;-81
2022/11/14 06:58:31;;;;;;;;;26.25;21.75;;;;;;;;5104131;27;61716;-83
2022/11/14 07:01:01;;;;;;;;;18.75;17.75;;;;;;;;5081579;27;61887;-82
2022/11/14 07:03:26;;;;;;;;;24.25;19.00;;;;;;;;5084433;27;61895;-82
2022/11/14 07:05:51;;;;;;;;;18.25;17.00;;;;;;;;5083162;27;61858;-82
2022/11/14 07:08:17;;;;;;;;;19.00;18.00;;;;;;;;5082223;27;61741;-83
2022/11/14 07:10:42;;;;;;;;;16.00;14.00;;;;;;;;5083751;27;61804;-83
2022/11/14 07:13:09;;;;;;;;;27.00;23.25;;;;;;;;5082011;27;61819;-83
2022/11/14 07:15:34;;;;;;;;;22.75;14.50;;;;;;;;5080972;27;63858;-83
2022/11/14 07:17:59;;;;;;;;;21.50;13.75;;;;;;;;5083188;28;61902;-84
2022/11/14 07:20:26;;;;;;;;;18.75;14.50;;;;;;;;5082907;27;61956;-82
2022/11/14 07:22:51;;;;;;;;;24.25;16.50;;;;;;;;5082307;27;62162;-84
2022/11/14 07:25:16;;;;;;;;;18.75;15.75;;;;;;;;5080779;27;63342;-83
2022/11/14 07:27:41;;;;;;;;;15.00;14.00;;;;;;;;5080225;28;62025;-83
2022/11/14 07:30:07;;;;;;;;;20.00;14.00;;;;;;;;5083565;27;61776;-82
2022/11/14 07:32:32;;;;;;;;;13.75;10.25;;;;;;;;5082304;27;62453;-84
2022/11/14 07:34:57;;;;;;;;;22.00;14.25;;;;;;;;5082795;27;61803;-83
2022/11/14 07:37:23;;;;;;;;;16.75;14.75;;;;;;;;5081434;27;61760;-83
2022/11/14 07:39:48;;;;;;;;;20.50;16.50;;;;;;;;5082457;28;61767;-80
2022/11/14 07:42:13;;;;;;;;;14.25;11.75;;;;;;;;5082869;27;62093;-83
2022/11/14 07:44:42;;;;;;;;;22.00;17.00;;;;;;;;5083022;28;61973;-86
2022/11/14 07:47:07;;;;;;;;;18.00;15.50;;;;;;;;5082130;28;62222;-81
2022/11/14 07:49:33;;;;;;;;;18.75;15.50;;;;;;;;5081063;28;61845;-82
2022/11/14 07:51:58;;;;;;;;;17.50;13.75;;;;;;;;5082071;27;61803;-80
2022/11/14 07:54:23;;;;;;;;;17.00;13.00;;;;;;;;5082476;27;62593;-81
2022/11/14 07:56:49;;;;;;;;;20.75;13.75;;;;;;;;5081542;28;62170;-82
2022/11/14 07:59:14;;;;;;;;;7.50;7.25;;;;;;;;5082836;27;61744;-82
2022/11/14 08:01:39;;;;;;;;;18.75;14.75;;;;;;;;5084371;27;62072;-81
2022/11/14 08:04:04;;;;;;;;;19.75;15.00;;;;;;;;5101954;27;61904;-81
2022/11/14 08:06:30;;;;;;;;;15.50;11.75;;;;;;;;5084261;27;61811;-81
2022/11/14 08:08:55;;;;;;;;;12.75;11.00;;;;;;;;5103062;27;61893;-81
2022/11/14 08:11:46;;;;;;;;;20.50;14.75;;;;;;;;5084321;27;61797;-81
2022/11/14 08:14:06;;;;;;;;;16.50;14.00;;;;;;;;5101953;27;62143;-81
2022/11/14 08:16:31;;;;;;;;;12.00;10.75;;;;;;;;5084240;27;61799;-81
2022/11/14 08:18:56;;;;;;;;;20.75;13.25;;;;;;;;5101454;27;61749;-81
2022/11/14 08:21:22;;;;;;;;;19.75;14.75;;;;;;;;5103381;27;61868;-81
2022/11/14 08:23:47;;;;;;;;;16.50;14.75;;;;;;;;5102090;27;62087;-81
2022/11/14 08:26:12;;;;;;;;;15.50;10.25;;;;;;;;5102412;27;61906;-81
2022/11/14 08:28:37;;;;;;;;;18.75;11.75;;;;;;;;5088796;27;61807;-81
2022/11/14 08:31:03;;;;;;;;;17.00;13.50;;;;;;;;5084806;27;61886;-81
2022/11/14 08:33:29;;;;;;;;;16.25;11.25;;;;;;;;5084172;27;63654;-81
2022/11/14 08:35:54;;;;;;;;;17.75;13.50;;;;;;;;5102857;27;61908;-82
2022/11/14 08:38:19;;;;;;;;;13.00;11.75;;;;;;;;5098494;27;61740;-81
2022/11/14 08:40:44;;;;;;;;;14.50;12.75;;;;;;;;5084862;27;62249;-81
2022/11/14 08:43:10;;;;;;;;;8.50;8.00;;;;;;;;5101972;27;62076;-81
2022/11/14 08:45:35;;;;;;;;;14.50;9.75;;;;;;;;5084421;27;61990;-81
2022/11/14 08:48:01;;;;;;;;;12.50;10.75;;;;;;;;5102249;27;61976;-81
2022/11/14 08:50:26;;;;;;;;;14.00;13.50;;;;;;;;5084360;27;61779;-82
2022/11/14 08:52:51;;;;;;;;;14.25;12.00;;;;;;;;5082367;27;62050;-82
2022/11/14 08:55:17;;;;;;;;;18.25;15.00;;;;;;;;5084035;27;62149;-81
2022/11/14 08:57:43;;;;;;;;;25.50;14.00;;;;;;;;5103151;27;61832;-81
2022/11/14 09:00:09;;;;;;;;;21.75;17.00;;;;;;;;5103090;27;61648;-82
2022/11/14 09:02:34;;;;;;;;;26.00;15.25;;;;;;;;5102348;27;61992;-82
2022/11/14 09:04:59;;;;;;;;;20.25;14.00;;;;;;;;5102582;27;61968;-82
2022/11/14 09:07:24;;;;;;;;;17.75;15.00;;;;;;;;5102497;27;61748;-80
2022/11/14 09:09:50;;;;;;;;;22.25;15.75;;;;;;;;5084343;27;61715;-82
2022/11/14 09:12:16;;;;;;;;;21.25;16.25;;;;;;;;5084219;27;63643;-82
2022/11/14 09:14:42;;;;;;;;;18.50;15.00;;;;;;;;5084333;27;61913;-82
2022/11/14 09:17:07;;;;;;;;;15.25;13.75;;;;;;;;5084304;27;61845;-82
2022/11/14 09:19:32;;;;;;;;;22.75;16.25;;;;;;;;5102007;27;61909;-82
2022/11/14 09:21:57;;;;;;;;;14.00;13.50;;;;;;;;5101435;27;61751;-81
2022/11/14 09:24:23;;;;;;;;;16.00;12.00;;;;;;;;5102804;27;61948;-83
2022/11/14 09:26:50;;;;;;;;;16.50;14.50;;;;;;;;5102545;27;61931;-82
2022/11/14 09:29:16;;;;;;;;;17.50;13.75;;;;;;;;5103591;27;61834;-82
2022/11/14 09:31:42;;;;;;;;;20.75;13.25;;;;;;;;5105814;27;62082;-82
2022/11/14 09:34:07;;;;;;;;;24.75;15.25;;;;;;;;5105951;27;61952;-82
2022/11/14 09:36:32;;;;;;;;;12.75;10.75;;;;;;;;5101274;27;61719;-81
2022/11/14 09:38:57;;;;;;;;;22.00;13.00;;;;;;;;5067076;28;61987;-82
2022/11/14 09:41:32;;;;;;;;;21.00;14.00;;;;;;;;5085033;27;61850;-83
2022/11/14 09:44:16;;;;;;;;;18.50;14.00;;;;;;;;5066805;28;61859;-82
2022/11/14 09:46:44;;;;;;;;;19.50;11.75;;;;;;;;5085636;28;61903;-82
2022/11/14 09:49:35;;;;;;;;;17.75;14.00;;;;;;;;5066512;28;62115;-81
2022/11/14 09:52:13;;;;;;;;;23.50;15.50;;;;;;;;5079595;27;61922;-82
2022/11/14 09:54:43;;;;;;;;;19.25;14.50;;;;;;;;5085512;28;61867;-82
2022/11/14 09:57:13;;;;;;;;;14.50;11.50;;;;;;;;5066371;28;61840;-82
2022/11/14 09:59:38;;;;;;;;;16.75;12.25;;;;;;;;5085259;28;61705;-82
2022/11/14 10:02:13;;;;;;;;;17.75;16.25;;;;;;;;5084101;28;62574;-83
2022/11/14 10:04:57;;;;;;;;;20.75;16.75;;;;;;;;5084559;28;62028;-82
2022/11/14 10:07:42;;;;;;;;;13.00;10.50;;;;;;;;5084774;28;61854;-82
2022/11/14 10:10:26;;;;;;;;;21.75;15.00;;;;;;;;5066842;28;61866;-83
2022/11/14 10:13:03;;;;;;;;;17.00;12.25;;;;;;;;5084453;28;61732;-82
2022/11/14 10:15:47;;;;;;;;;21.00;15.50;;;;;;;;5084840;28;61914;-82
2022/11/14 10:18:18;;;;;;;;;19.00;12.25;;;;;;;;5084534;28;61669;-82
2022/11/14 10:20:49;;;;;;;;;21.50;16.00;;;;;;;;5084451;28;62211;-83
2022/11/14 10:23:38;;;;;;;;;19.50;15.00;;;;;;;;5070292;27;62069;-83
2022/11/14 10:26:26;;;;;;;;;14.75;10.75;;;;;;;;5104833;27;61987;-82
2022/11/14 10:29:09;;;;;;;;;19.00;18.25;;;;;;;;5105586;27;61719;-82
2022/11/14 10:31:46;;;;;;;;;18.25;13.00;;;;;;;;5087067;27;61791;-82
2022/11/14 10:34:25;;;;;;;;;18.25;13.75;;;;;;;;5085570;27;63642;-82
2022/11/14 10:37:08;;;;;;;;;15.75;13.00;;;;;;;;5086541;27;61916;-83
2022/11/14 10:39:39;;;;;;;;;24.75;15.00;;;;;;;;5105058;27;61819;-82
2022/11/14 10:42:18;;;;;;;;;16.50;11.75;;;;;;;;5086033;27;61751;-82
2022/11/14 10:44:49;;;;;;;;;14.75;14.75;;;;;;;;5104353;27;61886;-82
2022/11/14 10:47:17;;;;;;;;;16.75;13.50;;;;;;;;5104949;27;62061;-82
2022/11/14 10:49:45;;;;;;;;;16.50;11.75;;;;;;;;5103501;27;62018;-82
2022/11/14 10:52:16;;;;;;;;;15.50;12.75;;;;;;;;5086746;27;62090;-83
2022/11/14 10:54:48;;;;;;;;;21.75;16.25;;;;;;;;5104336;27;62549;-82
2022/11/14 10:57:14;;;;;;;;;16.00;12.25;;;;;;;;5104255;27;62190;-81
2022/11/14 10:59:41;;;;;;;;;15.00;12.25;;;;;;;;5083041;27;61830;-82
2022/11/14 11:02:07;;;;;;;;;23.75;15.75;;;;;;;;5084236;28;61774;-82
2022/11/14 11:04:35;;;;;;;;;16.50;13.00;;;;;;;;5081082;28;63824;-82
2022/11/14 11:07:06;;;;;;;;;18.50;13.75;;;;;;;;5084133;27;61879;-82
2022/11/14 11:12:19;;;;;;;;;23.75;15.00;;;;;;;;5084224;28;61724;-82
2022/11/14 11:14:46;;;;;;;;;23.75;17.00;;;;;;;;5083623;28;63419;-82
2022/11/14 11:17:11;;;;;;;;;14.00;11.25;;;;;;;;5082617;27;61870;-82
2022/11/14 11:19:37;;;;;;;;;13.75;13.75;;;;;;;;5083081;27;62310;-83
2022/11/14 11:22:04;;;;;;;;;13.75;12.50;;;;;;;;5082852;28;61998;-82
2022/11/14 11:24:30;;;;;;;;;17.50;14.50;;;;;;;;5083315;28;62076;-82
2022/11/14 11:27:11;;;;;;;;;19.25;15.00;;;;;;;;5082668;28;61957;-82
2022/11/14 11:29:36;;;;;;;;;11.00;9.25;;;;;;;;5084050;28;62122;-82
2022/11/14 11:32:01;;;;;;;;;15.75;15.25;;;;;;;;5084207;27;62141;-83
2022/11/14 11:34:28;;;;;;;;;21.50;16.00;;;;;;;;5080776;28;61895;-82
2022/11/14 11:37:02;;;;;;;;;18.25;13.25;;;;;;;;5082196;28;62001;-82
2022/11/14 11:39:29;;;;;;;;;19.75;17.75;;;;;;;;5081999;28;61742;-82
2022/11/14 11:41:56;;;;;;;;;19.25;13.00;;;;;;;;5082789;28;61792;-83
2022/11/14 11:44:32;;;;;;;;;14.50;12.00;;;;;;;;5081658;27;63024;-82
2022/11/14 11:46:59;;;;;;;;;19.50;15.25;;;;;;;;5081756;28;61650;-82
2022/11/14 11:49:43;;;;;;;;;19.00;14.00;;;;;;;;5082800;27;61647;-82
2022/11/14 11:52:15;;;;;;;;;13.00;12.25;;;;;;;;5082961;28;61669;-83
2022/11/14 11:54:59;;;;;;;;;18.50;14.00;;;;;;;;5082497;27;62078;-82
2022/11/14 11:57:31;;;;;;;;;16.75;13.75;;;;;;;;5083025;28;61982;-83
2022/11/14 12:00:05;;;;;;;;;16.00;12.50;;;;;;;;5081903;27;61995;-82
2022/11/14 12:02:31;;;;;;;;;19.25;13.00;;;;;;;;5081710;27;62067;-83
2022/11/14 12:04:59;;;;;;;;;19.75;15.75;;;;;;;;5081099;28;62176;-82
2022/11/14 12:07:34;;;;;;;;;20.75;14.25;;;;;;;;5083102;28;61897;-82
2022/11/14 12:10:01;;;;;;;;;21.50;14.00;;;;;;;;5082049;28;61934;-83
2022/11/14 12:12:30;;;;;;;;;20.75;14.75;;;;;;;;5083466;27;61824;-82
2022/11/14 12:15:14;;;;;;;;;18.00;15.00;;;;;;;;5082993;27;62253;-83
2022/11/14 12:18:02;;;;;;;;;16.50;15.25;;;;;;;;5082565;27;61796;-83
2022/11/14 12:20:44;;;;;;;;;17.75;13.00;;;;;;;;5079169;27;62006;-83
2022/11/14 12:23:32;;;;;;;;;18.75;12.75;;;;;;;;5082399;27;61677;-82
2022/11/14 12:26:12;;;;;;;;;15.00;14.75;;;;;;;;5079278;28;63725;-82
2022/11/14 12:29:01;;;;;;;;;15.50;12.25;;;;;;;;5080712;27;62050;-83
2022/11/14 12:31:27;;;;;;;;;19.00;14.25;;;;;;;;5075543;27;61911;-82
2022/11/14 12:34:22;;;;;;;;;19.25;14.00;;;;;;;;5082965;27;61716;-83
2022/11/14 12:36:47;;;;;;;;;16.00;12.75;;;;;;;;5071450;28;62186;-82
2022/11/14 12:39:39;;;;;;;;;19.50;17.00;;;;;;;;5081595;28;62070;-82
2022/11/14 12:42:06;;;;;;;;;22.25;16.50;;;;;;;;5079121;27;61775;-81
2022/11/14 12:44:33;;;;;;;;;13.25;13.25;;;;;;;;5081482;27;62102;-83
2022/11/14 12:47:02;;;;;;;;;19.50;14.75;;;;;;;;5080274;28;64623;-82
2022/11/14 12:49:57;;;;;;;;;16.25;15.00;;;;;;;;5080375;28;61873;-83
2022/11/14 12:52:44;;;;;;;;;25.25;16.25;;;;;;;;5081528;28;61759;-83
2022/11/14 12:55:21;;;;;;;;;21.75;18.50;;;;;;;;5082714;27;61844;-83
2022/11/14 12:58:05;;;;;;;;;16.00;15.00;;;;;;;;5080712;28;63514;-83
2022/11/14 13:00:31;;;;;;;;;18.50;17.00;;;;;;;;5094571;27;62131;-83
2022/11/14 13:03:02;;;;;;;;;17.50;16.25;;;;;;;;5102773;27;61841;-82
2022/11/14 13:05:46;;;;;;;;;17.25;17.25;;;;;;;;5102551;27;61812;-83
2022/11/14 13:08:15;;;;;;;;;16.75;14.00;;;;;;;;5084118;27;63253;-83
2022/11/14 13:10:40;;;;;;;;;22.75;16.25;;;;;;;;5084363;27;61930;-82
2022/11/14 13:21:45;;;;;;;;;20.50;15.75;;;;;;;;5102386;27;61782;-83
2022/11/14 13:24:17;;;;;;;;;19.50;17.00;;;;;;;;5102605;27;61765;-82
2022/11/14 13:26:50;;;;;;;;;14.50;11.00;;;;;;;;5102567;27;62187;-82
2022/11/14 13:29:35;;;;;;;;;14.75;12.50;;;;;;;;5101835;27;61808;-82
2022/11/14 13:32:00;;;;;;;;;14.75;14.00;;;;;;;;5102642;27;61694;-83
2022/11/14 13:34:32;;;;;;;;;15.00;13.50;;;;;;;;5102247;27;61717;-82
2022/11/14 13:37:03;;;;;;;;;16.25;14.75;;;;;;;;5102490;27;61725;-83
2022/11/14 13:39:31;;;;;;;;;12.25;11.25;;;;;;;;5083600;27;61993;-83
2022/11/14 13:42:09;;;;;;;;;13.25;10.25;;;;;;;;5084411;27;61840;-83
2022/11/14 13:44:52;;;;;;;;;8.25;7.00;;;;;;;;5101860;27;61726;-82
2022/11/14 13:47:24;;;;;;;;;11.00;10.00;;;;;;;;5102756;27;61769;-83
2022/11/14 13:50:04;;;;;;;;;13.25;10.25;;;;;;;;5082600;27;64768;-83
2022/11/14 13:52:34;;;;;;;;;14.75;12.00;;;;;;;;5083701;27;61807;-82
2022/11/14 13:55:00;;;;;;;;;12.00;10.00;;;;;;;;5083972;27;61928;-83
2022/11/14 13:57:49;;;;;;;;;11.50;9.25;;;;;;;;5083868;27;61918;-81
2022/11/14 14:00:16;;;;;;;;;13.00;9.75;;;;;;;;5072452;27;62029;-82
2022/11/14 14:03:10;;;;;;;;;15.75;12.75;;;;;;;;5083723;27;61797;-83
2022/11/14 14:05:54;;;;;;;;;11.25;11.25;;;;;;;;5018948;28;61923;-83
2022/11/14 14:08:40;;;;;;;;;15.25;10.00;;;;;;;;5002694;28;61941;-83
2022/11/14 14:11:11;;;;;;;;;13.00;11.00;;;;;;;;5018305;28;62842;-83
2022/11/14 14:13:45;;;;;;;;;12.00;12.00;;;;;;;;5001888;28;62060;-83
2022/11/14 14:16:34;;;;;;;;;16.25;13.00;;;;;;;;5003293;28;62620;-82
2022/11/14 14:19:02;;;;;;;;;12.75;11.75;;;;;;;;4997034;28;62048;-82
2022/11/14 14:21:44;;;;;;;;;13.50;11.50;;;;;;;;5021631;28;62018;-82
2022/11/14 14:24:12;;;;;;;;;12.00;10.75;;;;;;;;5023005;28;62061;-82
2022/11/14 14:26:43;;;;;;;;;13.00;11.25;;;;;;;;5021077;28;62207;-82
2022/11/14 14:29:09;;;;;;;;;14.00;11.75;;;;;;;;5005628;28;62204;-82
2022/11/14 14:31:38;;;;;;;;;18.25;12.00;;;;;;;;5004723;28;62236;-82
2022/11/14 14:34:23;;;;;;;;;16.25;14.25;;;;;;;;5021291;28;62139;-82
2022/11/14 14:36:52;;;;;;;;;13.50;10.00;;;;;;;;5021324;28;61806;-82